Cornwallville, New York
Current Conditions -  °F | °C
As of 2:51 PM on Sunday 23 Nov 2014 (Local Time) from KALB Reporting Station
Broken Clouds Broken Clouds  
Wind Chill: 53°   Ceiling: 6000
Heat Index: 53°   Visibility: 10mi
Dew Point: 28°   Wind: 3mph
Humidity: 38%   Direction: 120°ESE
Pressure: 30.07"   Gusts: NA
Location:  42.37°N, 74.16°W
Report Text: KALB 231951Z 12003KT 10SM BKN060 BKN090 12/M02 A3007 RMK AO2 SLP183 T01171022
Loading
Personal Weather Stations






























Interactive Weather Map New forecast layout! Learn more

10-Day Weather Forecast

Advertisements
Track Severe Weather on mobile